sensor_id;sensor_type;location;lat;lon;timestamp;pressure;altitude;pressure_sealevel;temperature;humidity
50356;BME280;36264;51.296;-0.602;2023-03-12T00:00:45;100346.50;;;21.83;44.22
50356;BME280;36264;51.296;-0.602;2023-03-12T00:03:10;100352.84;;;21.92;44.27
50356;BME280;36264;51.296;-0.602;2023-03-12T00:05:40;100354.88;;;22.10;43.97
50356;BME280;36264;51.296;-0.602;2023-03-12T00:08:06;100347.59;;;22.02;44.30
50356;BME280;36264;51.296;-0.602;2023-03-12T00:10:32;100348.94;;;21.96;44.11
50356;BME280;36264;51.296;-0.602;2023-03-12T00:12:57;100357.47;;;22.00;44.42
50356;BME280;36264;51.296;-0.602;2023-03-12T00:15:23;100350.50;;;21.99;44.66
50356;BME280;36264;51.296;-0.602;2023-03-12T00:17:49;100349.81;;;21.97;44.27
50356;BME280;36264;51.296;-0.602;2023-03-12T00:20:15;100343.84;;;22.04;44.63
50356;BME280;36264;51.296;-0.602;2023-03-12T00:22:41;100344.53;;;21.97;44.43
50356;BME280;36264;51.296;-0.602;2023-03-12T00:25:10;100344.72;;;22.15;44.74
50356;BME280;36264;51.296;-0.602;2023-03-12T00:27:36;100348.00;;;21.97;44.47
50356;BME280;36264;51.296;-0.602;2023-03-12T00:30:03;100343.66;;;22.17;44.32
50356;BME280;36264;51.296;-0.602;2023-03-12T00:32:31;100349.63;;;22.19;44.51
50356;BME280;36264;51.296;-0.602;2023-03-12T00:34:57;100356.53;;;22.11;44.34
50356;BME280;36264;51.296;-0.602;2023-03-12T00:37:22;100351.38;;;22.09;44.82
50356;BME280;36264;51.296;-0.602;2023-03-12T00:39:47;100352.66;;;22.15;44.51
50356;BME280;36264;51.296;-0.602;2023-03-12T00:42:13;100352.56;;;22.26;49.74
50356;BME280;36264;51.296;-0.602;2023-03-12T00:44:39;100352.81;;;22.13;47.78
50356;BME280;36264;51.296;-0.602;2023-03-12T00:47:04;100350.88;;;22.25;44.92
50356;BME280;36264;51.296;-0.602;2023-03-12T00:49:30;100357.31;;;22.22;46.04
50356;BME280;36264;51.296;-0.602;2023-03-12T00:51:55;100357.03;;;22.25;46.42
50356;BME280;36264;51.296;-0.602;2023-03-12T00:54:21;100364.34;;;22.33;46.28
50356;BME280;36264;51.296;-0.602;2023-03-12T00:56:47;100370.47;;;22.34;46.45
50356;BME280;36264;51.296;-0.602;2023-03-12T00:59:13;100370.91;;;22.39;46.10
50356;BME280;36264;51.296;-0.602;2023-03-12T01:01:39;100379.22;;;22.34;45.98
50356;BME280;36264;51.296;-0.602;2023-03-12T01:04:05;100368.91;;;22.31;46.02
50356;BME280;36264;51.296;-0.602;2023-03-12T01:06:30;100372.16;;;22.35;45.16
50356;BME280;36264;51.296;-0.602;2023-03-12T01:08:56;100370.91;;;22.39;44.88
50356;BME280;36264;51.296;-0.602;2023-03-12T01:11:21;100373.16;;;22.43;44.89
50356;BME280;36264;51.296;-0.602;2023-03-12T01:13:47;100366.16;;;22.42;44.98
50356;BME280;36264;51.296;-0.602;2023-03-12T01:16:12;100356.59;;;22.51;44.71
50356;BME280;36264;51.296;-0.602;2023-03-12T01:18:38;100361.13;;;22.80;44.65
50356;BME280;36264;51.296;-0.602;2023-03-12T01:21:03;100358.06;;;22.85;44.48
50356;BME280;36264;51.296;-0.602;2023-03-12T01:23:29;100361.13;;;22.80;44.04
50356;BME280;36264;51.296;-0.602;2023-03-12T01:25:55;100363.38;;;22.94;44.19
50356;BME280;36264;51.296;-0.602;2023-03-12T01:28:22;100359.09;;;23.03;44.07
50356;BME280;36264;51.296;-0.602;2023-03-12T01:30:47;100360.03;;;23.02;43.75
50356;BME280;36264;51.296;-0.602;2023-03-12T01:35:39;100350.34;;;23.12;43.99
50356;BME280;36264;51.296;-0.602;2023-03-12T01:38:12;100346.56;;;23.15;44.28
50356;BME280;36264;51.296;-0.602;2023-03-12T01:40:39;100338.03;;;22.92;44.02
50356;BME280;36264;51.296;-0.602;2023-03-12T01:43:29;100336.66;;;23.17;45.02
50356;BME280;36264;51.296;-0.602;2023-03-12T01:46:17;100347.81;;;23.30;44.37
50356;BME280;36264;51.296;-0.602;2023-03-12T01:48:50;100350.75;;;23.27;45.02
50356;BME280;36264;51.296;-0.602;2023-03-12T01:51:18;100351.84;;;23.25;44.41
50356;BME280;36264;51.296;-0.602;2023-03-12T01:53:47;100347.13;;;23.19;44.85
50356;BME280;36264;51.296;-0.602;2023-03-12T01:56:15;100351.88;;;23.44;44.08
50356;BME280;36264;51.296;-0.602;2023-03-12T01:58:46;100357.84;;;23.56;44.05
50356;BME280;36264;51.296;-0.602;2023-03-12T02:01:13;100359.53;;;23.47;44.54
50356;BME280;36264;51.296;-0.602;2023-03-12T02:03:39;100360.66;;;23.45;44.19
50356;BME280;36264;51.296;-0.602;2023-03-12T02:06:10;100365.78;;;23.56;44.45
50356;BME280;36264;51.296;-0.602;2023-03-12T02:08:41;100359.78;;;23.64;44.38
50356;BME280;36264;51.296;-0.602;2023-03-12T02:11:08;100359.81;;;23.44;45.52
50356;BME280;36264;51.296;-0.602;2023-03-12T02:13:33;100374.47;;;23.19;45.48
50356;BME280;36264;51.296;-0.602;2023-03-12T02:15:59;100369.56;;;23.44;44.46
50356;BME280;36264;51.296;-0.602;2023-03-12T02:18:26;100370.94;;;23.58;44.45
50356;BME280;36264;51.296;-0.602;2023-03-12T02:21:15;100372.63;;;23.59;45.33
50356;BME280;36264;51.296;-0.602;2023-03-12T02:23:52;100365.78;;;23.66;45.09
50356;BME280;36264;51.296;-0.602;2023-03-12T02:26:20;100356.59;;;23.60;44.54
50356;BME280;36264;51.296;-0.602;2023-03-12T02:28:47;100356.16;;;23.45;44.72
50356;BME280;36264;51.296;-0.602;2023-03-12T02:31:18;100341.38;;;23.62;44.39
50356;BME280;36264;51.296;-0.602;2023-03-12T02:33:45;100347.69;;;23.42;44.49
50356;BME280;36264;51.296;-0.602;2023-03-12T02:36:11;100351.00;;;23.44;44.34
50356;BME280;36264;51.296;-0.602;2023-03-12T02:39:03;100349.97;;;23.74;44.41
50356;BME280;36264;51.296;-0.602;2023-03-12T02:41:35;100337.47;;;23.66;44.15
50356;BME280;36264;51.296;-0.602;2023-03-12T02:46:48;100364.78;;;22.89;45.51
50356;BME280;36264;51.296;-0.602;2023-03-12T02:49:16;100366.72;;;22.96;45.00
50356;BME280;36264;51.296;-0.602;2023-03-12T02:51:43;100370.78;;;23.01;44.67
50356;BME280;36264;51.296;-0.602;2023-03-12T02:54:10;100369.81;;;22.92;44.63
50356;BME280;36264;51.296;-0.602;2023-03-12T02:56:35;100380.25;;;22.93;44.62
50356;BME280;36264;51.296;-0.602;2023-03-12T02:59:01;100366.16;;;22.93;44.55
50356;BME280;36264;51.296;-0.602;2023-03-12T03:01:27;100361.13;;;22.90;44.38
50356;BME280;36264;51.296;-0.602;2023-03-12T03:03:52;100362.00;;;22.90;44.37
50356;BME280;36264;51.296;-0.602;2023-03-12T03:06:19;100365.31;;;22.83;44.25
50356;BME280;36264;51.296;-0.602;2023-03-12T03:08:44;100363.75;;;22.60;43.99
50356;BME280;36264;51.296;-0.602;2023-03-12T03:11:10;100362.13;;;22.38;43.88
50356;BME280;36264;51.296;-0.602;2023-03-12T03:13:35;100361.88;;;22.41;43.96
50356;BME280;36264;51.296;-0.602;2023-03-12T03:16:01;100354.88;;;22.40;43.73
50356;BME280;36264;51.296;-0.602;2023-03-12T03:18:28;100358.94;;;22.45;43.66
50356;BME280;36264;51.296;-0.602;2023-03-12T03:20:56;100362.97;;;22.39;43.49
50356;BME280;36264;51.296;-0.602;2023-03-12T03:23:22;100367.75;;;22.24;43.55
50356;BME280;36264;51.296;-0.602;2023-03-12T03:25:47;100378.34;;;22.03;43.58
50356;BME280;36264;51.296;-0.602;2023-03-12T03:28:12;100386.16;;;22.04;43.27
50356;BME280;36264;51.296;-0.602;2023-03-12T03:30:38;100390.81;;;21.91;43.27
50356;BME280;36264;51.296;-0.602;2023-03-12T03:33:03;100391.19;;;21.65;43.16
50356;BME280;36264;51.296;-0.602;2023-03-12T03:35:29;100400.97;;;21.53;43.40
50356;BME280;36264;51.296;-0.602;2023-03-12T03:37:54;100401.97;;;21.52;43.55
50356;BME280;36264;51.296;-0.602;2023-03-12T03:40:19;100418.78;;;21.51;43.81
50356;BME280;36264;51.296;-0.602;2023-03-12T03:42:45;100427.63;;;21.62;43.83
50356;BME280;36264;51.296;-0.602;2023-03-12T03:45:10;100428.38;;;21.52;43.87
50356;BME280;36264;51.296;-0.602;2023-03-12T03:47:36;100434.25;;;21.56;43.60
50356;BME280;36264;51.296;-0.602;2023-03-12T03:50:02;100424.81;;;21.63;43.78
50356;BME280;36264;51.296;-0.602;2023-03-12T03:52:27;100434.13;;;21.46;44.01
50356;BME280;36264;51.296;-0.602;2023-03-12T03:54:53;100429.69;;;21.47;43.75
50356;BME280;36264;51.296;-0.602;2023-03-12T03:57:18;100441.59;;;21.52;43.95
50356;BME280;36264;51.296;-0.602;2023-03-12T03:59:44;100434.19;;;21.67;43.95
50356;BME280;36264;51.296;-0.602;2023-03-12T04:02:09;100444.72;;;21.79;43.86
50356;BME280;36264;51.296;-0.602;2023-03-12T04:04:34;100447.84;;;21.73;43.75
50356;BME280;36264;51.296;-0.602;2023-03-12T04:07:00;100457.59;;;21.72;43.84
50356;BME280;36264;51.296;-0.602;2023-03-12T04:09:25;100452.06;;;21.75;43.60
50356;BME280;36264;51.296;-0.602;2023-03-12T04:11:50;100457.03;;;21.68;43.81
50356;BME280;36264;51.296;-0.602;2023-03-12T04:14:16;100458.81;;;21.68;43.82
50356;BME280;36264;51.296;-0.602;2023-03-12T04:16:41;100470.25;;;21.46;44.19
50356;BME280;36264;51.296;-0.602;2023-03-12T04:19:06;100462.22;;;21.47;44.09
50356;BME280;36264;51.296;-0.602;2023-03-12T04:21:32;100466.78;;;21.45;44.42
50356;BME280;36264;51.296;-0.602;2023-03-12T04:23:57;100460.81;;;21.43;44.69
50356;BME280;36264;51.296;-0.602;2023-03-12T04:26:22;100467.16;;;21.41;44.62
50356;BME280;36264;51.296;-0.602;2023-03-12T04:28:48;100464.97;;;21.46;44.63
50356;BME280;36264;51.296;-0.602;2023-03-12T04:31:13;100469.22;;;21.37;44.24
50356;BME280;36264;51.296;-0.602;2023-03-12T04:33:39;100481.34;;;21.51;44.39
50356;BME280;36264;51.296;-0.602;2023-03-12T04:36:05;100485.53;;;21.53;44.65
50356;BME280;36264;51.296;-0.602;2023-03-12T04:38:30;100493.72;;;21.50;44.42
50356;BME280;36264;51.296;-0.602;2023-03-12T04:41:00;100500.03;;;21.92;44.94
50356;BME280;36264;51.296;-0.602;2023-03-12T04:43:27;100494.66;;;22.14;44.36
50356;BME280;36264;51.296;-0.602;2023-03-12T04:45:53;100507.16;;;22.12;44.45
50356;BME280;36264;51.296;-0.602;2023-03-12T04:48:19;100494.78;;;22.13;44.71
50356;BME280;36264;51.296;-0.602;2023-03-12T04:50:44;100516.66;;;22.15;44.51
50356;BME280;36264;51.296;-0.602;2023-03-12T04:53:10;100521.72;;;22.39;44.14
50356;BME280;36264;51.296;-0.602;2023-03-12T04:55:35;100517.25;;;22.39;44.35
50356;BME280;36264;51.296;-0.602;2023-03-12T04:58:00;100512.38;;;22.35;44.19
50356;BME280;36264;51.296;-0.602;2023-03-12T05:00:26;100509.25;;;22.30;44.08
50356;BME280;36264;51.296;-0.602;2023-03-12T05:02:51;100506.97;;;22.25;43.99
50356;BME280;36264;51.296;-0.602;2023-03-12T05:05:17;100513.19;;;22.35;43.94
50356;BME280;36264;51.296;-0.602;2023-03-12T05:07:43;100514.34;;;22.42;43.49
50356;BME280;36264;51.296;-0.602;2023-03-12T05:10:08;100516.47;;;22.49;43.55
50356;BME280;36264;51.296;-0.602;2023-03-12T05:12:34;100522.72;;;22.05;43.56
50356;BME280;36264;51.296;-0.602;2023-03-12T05:14:59;100522.72;;;22.05;43.80
50356;BME280;36264;51.296;-0.602;2023-03-12T05:17:25;100522.44;;;22.08;44.19
50356;BME280;36264;51.296;-0.602;2023-03-12T05:19:50;100517.16;;;22.08;43.88
50356;BME280;36264;51.296;-0.602;2023-03-12T05:22:16;100526.16;;;22.17;43.91
50356;BME280;36264;51.296;-0.602;2023-03-12T05:24:42;100539.09;;;22.20;44.25
50356;BME280;36264;51.296;-0.602;2023-03-12T05:27:07;100528.91;;;22.16;43.86
50356;BME280;36264;51.296;-0.602;2023-03-12T05:29:33;100525.47;;;22.25;43.78
50356;BME280;36264;51.296;-0.602;2023-03-12T05:32:03;100522.47;;;22.30;44.02
50356;BME280;36264;51.296;-0.602;2023-03-12T05:34:29;100530.09;;;22.44;43.83
50356;BME280;36264;51.296;-0.602;2023-03-12T05:36:56;100523.47;;;22.50;43.92
50356;BME280;36264;51.296;-0.602;2023-03-12T05:39:22;100525.47;;;22.36;44.10
50356;BME280;36264;51.296;-0.602;2023-03-12T05:41:47;100522.97;;;22.66;43.66
50356;BME280;36264;51.296;-0.602;2023-03-12T05:44:13;100523.50;;;22.59;43.72
50356;BME280;36264;51.296;-0.602;2023-03-12T05:46:41;100531.31;;;22.61;43.39
50356;BME280;36264;51.296;-0.602;2023-03-12T05:49:07;100526.31;;;22.37;43.78
50356;BME280;36264;51.296;-0.602;2023-03-12T05:51:32;100525.75;;;22.22;44.11
50356;BME280;36264;51.296;-0.602;2023-03-12T05:53:58;100537.88;;;22.24;44.17
50356;BME280;36264;51.296;-0.602;2023-03-12T05:56:24;100524.03;;;22.32;44.00
50356;BME280;36264;51.296;-0.602;2023-03-12T05:58:49;100515.41;;;22.30;43.83
50356;BME280;36264;51.296;-0.602;2023-03-12T06:01:21;100500.84;;;22.46;43.84
50356;BME280;36264;51.296;-0.602;2023-03-12T06:03:47;100513.06;;;22.37;43.42
50356;BME280;36264;51.296;-0.602;2023-03-12T06:06:13;100523.75;;;22.14;43.34
50356;BME280;36264;51.296;-0.602;2023-03-12T06:08:39;100519.22;;;22.26;43.34
50356;BME280;36264;51.296;-0.602;2023-03-12T06:11:05;100519.31;;;21.82;43.36
50356;BME280;36264;51.296;-0.602;2023-03-12T06:13:30;100520.91;;;21.74;43.25
50356;BME280;36264;51.296;-0.602;2023-03-12T06:16:07;100525.78;;;21.89;42.68
50356;BME280;36264;51.296;-0.602;2023-03-12T06:18:34;100539.66;;;21.70;43.25
50356;BME280;36264;51.296;-0.602;2023-03-12T06:21:17;100547.09;;;21.77;43.75
50356;BME280;36264;51.296;-0.602;2023-03-12T06:23:43;100539.03;;;21.78;43.33
50356;BME280;36264;51.296;-0.602;2023-03-12T06:26:10;100537.97;;;21.69;43.18
50356;BME280;36264;51.296;-0.602;2023-03-12T06:28:36;100546.03;;;21.68;43.28
50356;BME280;36264;51.296;-0.602;2023-03-12T06:31:02;100542.13;;;21.51;43.36
50356;BME280;36264;51.296;-0.602;2023-03-12T06:33:28;100561.78;;;21.47;43.77
50356;BME280;36264;51.296;-0.602;2023-03-12T06:35:56;100571.38;;;21.70;43.83
50356;BME280;36264;51.296;-0.602;2023-03-12T06:38:22;100581.63;;;21.52;43.69
50356;BME280;36264;51.296;-0.602;2023-03-12T06:40:59;100581.69;;;21.85;44.15
50356;BME280;36264;51.296;-0.602;2023-03-12T06:43:27;100593.06;;;21.85;43.59
50356;BME280;36264;51.296;-0.602;2023-03-12T06:45:53;100586.13;;;21.84;43.49
50356;BME280;36264;51.296;-0.602;2023-03-12T06:48:19;100591.34;;;21.75;43.87
50356;BME280;36264;51.296;-0.602;2023-03-12T06:50:44;100591.28;;;21.86;44.09
50356;BME280;36264;51.296;-0.602;2023-03-12T06:53:10;100579.59;;;22.00;43.76
50356;BME280;36264;51.296;-0.602;2023-03-12T06:55:35;100593.28;;;22.05;43.71
50356;BME280;36264;51.296;-0.602;2023-03-12T06:58:01;100586.53;;;22.01;44.33
50356;BME280;36264;51.296;-0.602;2023-03-12T07:00:28;100568.19;;;22.20;44.13
50356;BME280;36264;51.296;-0.602;2023-03-12T07:02:54;100577.31;;;22.28;43.90
50356;BME280;36264;51.296;-0.602;2023-03-12T07:05:19;100576.00;;;22.33;44.07
50356;BME280;36264;51.296;-0.602;2023-03-12T07:07:45;100562.91;;;22.32;44.10
50356;BME280;36264;51.296;-0.602;2023-03-12T07:10:11;100555.34;;;22.48;43.89
50356;BME280;36264;51.296;-0.602;2023-03-12T07:12:36;100555.31;;;22.27;44.15
50356;BME280;36264;51.296;-0.602;2023-03-12T07:15:02;100555.91;;;22.31;43.98
50356;BME280;36264;51.296;-0.602;2023-03-12T07:17:27;100543.75;;;22.28;43.84
50356;BME280;36264;51.296;-0.602;2023-03-12T07:19:52;100553.75;;;22.24;43.95
50356;BME280;36264;51.296;-0.602;2023-03-12T07:22:18;100565.53;;;22.20;44.15
50356;BME280;36264;51.296;-0.602;2023-03-12T07:24:43;100576.84;;;22.22;43.69
50356;BME280;36264;51.296;-0.602;2023-03-12T07:27:08;100575.50;;;22.28;44.02
50356;BME280;36264;51.296;-0.602;2023-03-12T07:29:34;100571.66;;;22.32;43.91
50356;BME280;36264;51.296;-0.602;2023-03-12T07:31:59;100565.75;;;22.40;43.55
50356;BME280;36264;51.296;-0.602;2023-03-12T07:34:25;100573.81;;;22.38;43.74
50356;BME280;36264;51.296;-0.602;2023-03-12T07:36:50;100577.56;;;22.24;43.71
50356;BME280;36264;51.296;-0.602;2023-03-12T07:39:15;100571.31;;;22.25;43.91
50356;BME280;36264;51.296;-0.602;2023-03-12T07:41:41;100573.84;;;22.27;44.11
50356;BME280;36264;51.296;-0.602;2023-03-12T07:44:06;100575.06;;;22.44;44.10
50356;BME280;36264;51.296;-0.602;2023-03-12T07:46:32;100562.38;;;22.38;45.33
50356;BME280;36264;51.296;-0.602;2023-03-12T07:48:57;100587.16;;;22.37;44.74
50356;BME280;36264;51.296;-0.602;2023-03-12T07:51:23;100586.47;;;22.56;44.42
50356;BME280;36264;51.296;-0.602;2023-03-12T07:53:48;100587.59;;;22.63;44.59
50356;BME280;36264;51.296;-0.602;2023-03-12T07:56:13;100589.22;;;22.75;44.55
50356;BME280;36264;51.296;-0.602;2023-03-12T07:58:39;100592.44;;;22.79;44.73
50356;BME280;36264;51.296;-0.602;2023-03-12T08:01:04;100580.78;;;22.91;44.77
50356;BME280;36264;51.296;-0.602;2023-03-12T08:03:31;100597.13;;;22.96;44.46
50356;BME280;36264;51.296;-0.602;2023-03-12T08:06:02;100594.88;;;23.13;44.52
50356;BME280;36264;51.296;-0.602;2023-03-12T08:08:28;100592.09;;;23.14;44.39
50356;BME280;36264;51.296;-0.602;2023-03-12T08:10:55;100601.44;;;23.19;44.66
50356;BME280;36264;51.296;-0.602;2023-03-12T08:13:21;100594.88;;;23.13;44.66
50356;BME280;36264;51.296;-0.602;2023-03-12T08:15:52;100597.28;;;23.26;44.33
50356;BME280;36264;51.296;-0.602;2023-03-12T08:18:18;100614.19;;;23.34;44.31
50356;BME280;36264;51.296;-0.602;2023-03-12T08:20:44;100608.47;;;23.29;44.56
50356;BME280;36264;51.296;-0.602;2023-03-12T08:23:09;100603.59;;;23.34;44.69
50356;BME280;36264;51.296;-0.602;2023-03-12T08:25:35;100600.81;;;23.36;44.65
50356;BME280;36264;51.296;-0.602;2023-03-12T08:28:02;100604.50;;;23.55;44.80
50356;BME280;36264;51.296;-0.602;2023-03-12T08:30:28;100619.88;;;23.61;44.46
50356;BME280;36264;51.296;-0.602;2023-03-12T08:32:53;100613.16;;;23.57;44.59
50356;BME280;36264;51.296;-0.602;2023-03-12T08:35:19;100617.19;;;23.51;44.79
50356;BME280;36264;51.296;-0.602;2023-03-12T08:37:44;100628.19;;;23.46;44.70
50356;BME280;36264;51.296;-0.602;2023-03-12T08:40:10;100622.69;;;23.69;44.47
50356;BME280;36264;51.296;-0.602;2023-03-12T08:42:41;100637.19;;;23.65;44.94
50356;BME280;36264;51.296;-0.602;2023-03-12T08:45:07;100645.34;;;23.52;45.02
50356;BME280;36264;51.296;-0.602;2023-03-12T08:47:33;100639.91;;;23.54;45.08
50356;BME280;36264;51.296;-0.602;2023-03-12T08:49:59;100645.22;;;23.54;44.87
50356;BME280;36264;51.296;-0.602;2023-03-12T08:52:26;100658.41;;;23.65;44.84
50356;BME280;36264;51.296;-0.602;2023-03-12T08:54:52;100656.16;;;23.60;44.92
50356;BME280;36264;51.296;-0.602;2023-03-12T08:57:17;100647.59;;;23.57;44.65
50356;BME280;36264;51.296;-0.602;2023-03-12T08:59:43;100653.25;;;23.63;44.67
50356;BME280;36264;51.296;-0.602;2023-03-12T09:02:11;100650.19;;;23.78;44.25
50356;BME280;36264;51.296;-0.602;2023-03-12T09:04:37;100645.88;;;23.77;44.48
50356;BME280;36264;51.296;-0.602;2023-03-12T09:07:02;100641.31;;;23.88;44.72
50356;BME280;36264;51.296;-0.602;2023-03-12T09:09:28;100645.78;;;23.98;44.68
50356;BME280;36264;51.296;-0.602;2023-03-12T09:11:53;100651.50;;;23.93;44.51
50356;BME280;36264;51.296;-0.602;2023-03-12T09:14:19;100653.03;;;23.86;44.27
50356;BME280;36264;51.296;-0.602;2023-03-12T09:16:44;100645.66;;;23.99;44.61
50356;BME280;36264;51.296;-0.602;2023-03-12T09:19:09;100655.28;;;24.00;44.48
50356;BME280;36264;51.296;-0.602;2023-03-12T09:21:35;100647.75;;;23.96;44.46
50356;BME280;36264;51.296;-0.602;2023-03-12T09:24:00;100650.69;;;24.02;44.80
50356;BME280;36264;51.296;-0.602;2023-03-12T09:26:26;100652.66;;;24.10;44.38
50356;BME280;36264;51.296;-0.602;2023-03-12T09:28:51;100656.00;;;24.02;44.25
50356;BME280;36264;51.296;-0.602;2023-03-12T09:31:16;100648.75;;;24.14;44.42
50356;BME280;36264;51.296;-0.602;2023-03-12T09:33:42;100644.28;;;24.15;44.01
50356;BME280;36264;51.296;-0.602;2023-03-12T09:36:07;100647.34;;;24.20;44.07
50356;BME280;36264;51.296;-0.602;2023-03-12T09:38:33;100646.25;;;24.13;44.27
50356;BME280;36264;51.296;-0.602;2023-03-12T09:41:00;100646.78;;;24.07;43.66
50356;BME280;36264;51.296;-0.602;2023-03-12T09:43:42;100655.75;;;24.25;43.87
50356;BME280;36264;51.296;-0.602;2023-03-12T09:46:21;100653.38;;;24.41;43.99
50356;BME280;36264;51.296;-0.602;2023-03-12T09:48:49;100650.13;;;24.28;44.03
50356;BME280;36264;51.296;-0.602;2023-03-12T09:51:20;100651.81;;;24.49;43.35
50356;BME280;36264;51.296;-0.602;2023-03-12T09:53:50;100647.91;;;24.53;43.75
50356;BME280;36264;51.296;-0.602;2023-03-12T09:56:19;100641.25;;;24.58;43.67
50356;BME280;36264;51.296;-0.602;2023-03-12T09:58:46;100643.75;;;24.60;43.47
50356;BME280;36264;51.296;-0.602;2023-03-12T10:01:30;100632.00;;;24.53;43.02
50356;BME280;36264;51.296;-0.602;2023-03-12T10:12:06;100611.66;;;25.01;43.39
50356;BME280;36264;51.296;-0.602;2023-03-12T10:25:42;100605.75;;;25.07;43.15
50356;BME280;36264;51.296;-0.602;2023-03-12T10:28:19;100613.63;;;25.26;42.67
50356;BME280;36264;51.296;-0.602;2023-03-12T10:30:52;100594.78;;;25.29;42.91
50356;BME280;36264;51.296;-0.602;2023-03-12T10:33:19;100595.78;;;25.28;43.06
50356;BME280;36264;51.296;-0.602;2023-03-12T10:35:46;100589.75;;;25.17;43.37
50356;BME280;36264;51.296;-0.602;2023-03-12T10:38:30;100582.44;;;25.38;42.44
50356;BME280;36264;51.296;-0.602;2023-03-12T10:40:55;100584.69;;;24.95;43.06
50356;BME280;36264;51.296;-0.602;2023-03-12T10:43:21;100588.22;;;25.24;43.05
50356;BME280;36264;51.296;-0.602;2023-03-12T10:48:27;100572.38;;;25.32;42.70
50356;BME280;36264;51.296;-0.602;2023-03-12T10:51:07;100575.88;;;25.60;41.82
50356;BME280;36264;51.296;-0.602;2023-03-12T10:53:43;100581.25;;;25.68;42.59
50356;BME280;36264;51.296;-0.602;2023-03-12T10:56:15;100578.59;;;25.86;42.05
50356;BME280;36264;51.296;-0.602;2023-03-12T10:58:42;100576.19;;;25.93;42.28
50356;BME280;36264;51.296;-0.602;2023-03-12T11:01:29;100581.69;;;25.92;40.83
50356;BME280;36264;51.296;-0.602;2023-03-12T11:04:30;100585.69;;;25.96;41.34
50356;BME280;36264;51.296;-0.602;2023-03-12T11:07:19;100574.31;;;26.03;41.34
50356;BME280;36264;51.296;-0.602;2023-03-12T11:09:45;100566.78;;;25.81;42.09
50356;BME280;36264;51.296;-0.602;2023-03-12T11:12:28;100564.91;;;26.09;40.91
50356;BME280;36264;51.296;-0.602;2023-03-12T11:14:55;100558.03;;;25.89;42.05
50356;BME280;36264;51.296;-0.602;2023-03-12T11:17:23;100559.47;;;26.01;41.91
50356;BME280;36264;51.296;-0.602;2023-03-12T11:19:49;100555.06;;;25.92;42.07
50356;BME280;36264;51.296;-0.602;2023-03-12T11:22:29;100540.50;;;26.14;41.54
50356;BME280;36264;51.296;-0.602;2023-03-12T11:25:03;100539.47;;;26.33;41.23
50356;BME280;36264;51.296;-0.602;2023-03-12T11:27:40;100537.22;;;26.46;40.31
50356;BME280;36264;51.296;-0.602;2023-03-12T11:30:11;100534.25;;;26.49;40.81
50356;BME280;36264;51.296;-0.602;2023-03-12T11:32:44;100528.97;;;26.57;40.69
50356;BME280;36264;51.296;-0.602;2023-03-12T11:35:16;100514.22;;;26.45;40.74
50356;BME280;36264;51.296;-0.602;2023-03-12T11:38:19;100513.13;;;26.56;40.33
50356;BME280;36264;51.296;-0.602;2023-03-12T11:41:08;100512.78;;;26.51;40.87
50356;BME280;36264;51.296;-0.602;2023-03-12T11:49:39;100512.44;;;26.46;40.53
50356;BME280;36264;51.296;-0.602;2023-03-12T12:22:41;100497.63;;;26.51;38.23
50356;BME280;36264;51.296;-0.602;2023-03-12T12:25:27;100488.78;;;26.77;37.76
50356;BME280;36264;51.296;-0.602;2023-03-12T12:36:18;100470.19;;;26.85;40.48
50356;BME280;36264;51.296;-0.602;2023-03-12T12:38:50;100470.91;;;27.04;39.94
50356;BME280;36264;51.296;-0.602;2023-03-12T12:43:48;100451.09;;;27.06;40.24
50356;BME280;36264;51.296;-0.602;2023-03-12T12:46:19;100459.09;;;26.98;40.04
50356;BME280;36264;51.296;-0.602;2023-03-12T12:48:52;100452.31;;;27.20;39.58
50356;BME280;36264;51.296;-0.602;2023-03-12T12:51:22;100477.63;;;27.24;40.11
50356;BME280;36264;51.296;-0.602;2023-03-12T12:54:13;100455.09;;;27.10;38.33
50356;BME280;36264;51.296;-0.602;2023-03-12T12:59:41;100463.69;;;27.39;39.99
50356;BME280;36264;51.296;-0.602;2023-03-12T13:02:20;100458.19;;;27.32;38.09
50356;BME280;36264;51.296;-0.602;2023-03-12T13:04:47;100449.19;;;27.33;39.95
50356;BME280;36264;51.296;-0.602;2023-03-12T13:09:47;100434.38;;;27.63;39.78
50356;BME280;36264;51.296;-0.602;2023-03-12T13:14:50;100448.06;;;27.60;39.57
50356;BME280;36264;51.296;-0.602;2023-03-12T13:17:32;100428.38;;;27.45;37.60
50356;BME280;36264;51.296;-0.602;2023-03-12T13:20:13;100438.22;;;27.36;37.95
50356;BME280;36264;51.296;-0.602;2023-03-12T13:25:46;100448.22;;;27.59;36.81
50356;BME280;36264;51.296;-0.602;2023-03-12T13:30:55;100440.22;;;27.59;38.30
50356;BME280;36264;51.296;-0.602;2023-03-12T13:33:44;100452.56;;;27.76;37.24
50356;BME280;36264;51.296;-0.602;2023-03-12T13:41:41;100442.03;;;27.50;38.44
50356;BME280;36264;51.296;-0.602;2023-03-12T13:47:30;100415.53;;;27.40;36.17
50356;BME280;36264;51.296;-0.602;2023-03-12T13:50:09;100403.03;;;27.41;36.22
50356;BME280;36264;51.296;-0.602;2023-03-12T13:52:49;100408.16;;;27.83;37.33
50356;BME280;36264;51.296;-0.602;2023-03-12T13:55:30;100412.53;;;27.43;35.78
50356;BME280;36264;51.296;-0.602;2023-03-12T14:01:00;100415.53;;;27.48;36.07
50356;BME280;36264;51.296;-0.602;2023-03-12T14:03:35;100417.44;;;26.97;37.62
50356;BME280;36264;51.296;-0.602;2023-03-12T14:06:09;100413.69;;;26.73;36.54
50356;BME280;36264;51.296;-0.602;2023-03-12T14:12:05;100417.50;;;27.30;36.94
50356;BME280;36264;51.296;-0.602;2023-03-12T14:17:14;100417.28;;;26.99;36.17
50356;BME280;36264;51.296;-0.602;2023-03-12T14:19:45;100410.16;;;27.24;37.73
50356;BME280;36264;51.296;-0.602;2023-03-12T14:22:12;100407.47;;;27.16;37.92
50356;BME280;36264;51.296;-0.602;2023-03-12T14:24:57;100397.31;;;27.27;36.67
50356;BME280;36264;51.296;-0.602;2023-03-12T14:27:29;100408.63;;;27.21;37.61
50356;BME280;36264;51.296;-0.602;2023-03-12T14:29:57;100410.00;;;27.17;38.07
50356;BME280;36264;51.296;-0.602;2023-03-12T14:32:28;100411.63;;;27.10;37.77